sensor_id;sensor_type;location;lat;lon;timestamp;P1;durP1;ratioP1;P2;durP2;ratioP2
8592;SDS011;4334;49.982;8.398;2022-09-01T00:00:04;3.23;;;2.27;;
8592;SDS011;4334;49.982;8.398;2022-09-01T00:02:33;3.53;;;2.03;;
8592;SDS011;4334;49.982;8.398;2022-09-01T00:05:00;2.20;;;2.00;;
8592;SDS011;4334;49.982;8.398;2022-09-01T00:07:30;3.33;;;2.20;;
8592;SDS011;4334;49.982;8.398;2022-09-01T00:09:58;4.83;;;1.90;;
8592;SDS011;4334;49.982;8.398;2022-09-01T00:12:26;3.37;;;2.20;;
8592;SDS011;4334;49.982;8.398;2022-09-01T00:14:54;2.73;;;2.00;;
8592;SDS011;4334;49.982;8.398;2022-09-01T00:17:22;2.60;;;2.03;;
8592;SDS011;4334;49.982;8.398;2022-09-01T00:19:49;5.20;;;2.30;;
8592;SDS011;4334;49.982;8.398;2022-09-01T00:22:16;3.20;;;1.97;;
8592;SDS011;4334;49.982;8.398;2022-09-01T00:24:44;2.10;;;1.90;;
8592;SDS011;4334;49.982;8.398;2022-09-01T00:27:11;2.57;;;2.17;;
8592;SDS011;4334;49.982;8.398;2022-09-01T00:29:38;3.53;;;2.10;;
8592;SDS011;4334;49.982;8.398;2022-09-01T00:32:05;2.73;;;1.83;;
8592;SDS011;4334;49.982;8.398;2022-09-01T00:34:32;2.90;;;2.00;;
8592;SDS011;4334;49.982;8.398;2022-09-01T00:36:59;4.30;;;1.87;;
8592;SDS011;4334;49.982;8.398;2022-09-01T00:39:26;2.67;;;2.03;;
8592;SDS011;4334;49.982;8.398;2022-09-01T00:41:54;2.27;;;1.97;;
8592;SDS011;4334;49.982;8.398;2022-09-01T00:44:22;2.10;;;1.90;;
8592;SDS011;4334;49.982;8.398;2022-09-01T00:46:52;2.83;;;2.20;;
8592;SDS011;4334;49.982;8.398;2022-09-01T00:49:21;3.40;;;2.10;;
8592;SDS011;4334;49.982;8.398;2022-09-01T00:51:55;3.97;;;2.33;;
8592;SDS011;4334;49.982;8.398;2022-09-01T00:54:25;2.80;;;2.00;;
8592;SDS011;4334;49.982;8.398;2022-09-01T00:56:56;2.77;;;2.20;;
8592;SDS011;4334;49.982;8.398;2022-09-01T00:59:24;4.57;;;2.23;;
8592;SDS011;4334;49.982;8.398;2022-09-01T01:01:52;3.00;;;2.17;;
8592;SDS011;4334;49.982;8.398;2022-09-01T01:04:19;2.80;;;2.00;;
8592;SDS011;4334;49.982;8.398;2022-09-01T01:06:47;4.27;;;2.33;;
8592;SDS011;4334;49.982;8.398;2022-09-01T01:09:23;2.20;;;2.00;;
8592;SDS011;4334;49.982;8.398;2022-09-01T01:11:51;3.07;;;2.03;;
8592;SDS011;4334;49.982;8.398;2022-09-01T01:14:20;4.37;;;2.20;;
8592;SDS011;4334;49.982;8.398;2022-09-01T01:16:48;2.60;;;2.20;;
8592;SDS011;4334;49.982;8.398;2022-09-01T01:19:17;2.93;;;2.00;;
8592;SDS011;4334;49.982;8.398;2022-09-01T01:22:09;3.93;;;2.00;;
8592;SDS011;4334;49.982;8.398;2022-09-01T01:25:01;3.57;;;2.07;;
8592;SDS011;4334;49.982;8.398;2022-09-01T01:27:30;2.73;;;2.20;;
8592;SDS011;4334;49.982;8.398;2022-09-01T01:29:59;3.23;;;1.90;;
8592;SDS011;4334;49.982;8.398;2022-09-01T01:32:26;3.43;;;2.13;;
8592;SDS011;4334;49.982;8.398;2022-09-01T01:34:53;3.53;;;2.00;;
8592;SDS011;4334;49.982;8.398;2022-09-01T01:37:20;2.10;;;1.90;;
8592;SDS011;4334;49.982;8.398;2022-09-01T01:39:49;3.93;;;2.10;;
8592;SDS011;4334;49.982;8.398;2022-09-01T01:42:18;2.53;;;1.90;;
8592;SDS011;4334;49.982;8.398;2022-09-01T01:44:44;3.53;;;2.00;;
8592;SDS011;4334;49.982;8.398;2022-09-01T01:47:12;2.80;;;1.90;;
8592;SDS011;4334;49.982;8.398;2022-09-01T01:49:40;2.70;;;2.20;;
8592;SDS011;4334;49.982;8.398;2022-09-01T01:52:08;3.20;;;2.10;;
8592;SDS011;4334;49.982;8.398;2022-09-01T01:54:38;2.57;;;2.07;;
8592;SDS011;4334;49.982;8.398;2022-09-01T01:57:05;3.73;;;2.10;;
8592;SDS011;4334;49.982;8.398;2022-09-01T01:59:33;2.17;;;1.97;;
8592;SDS011;4334;49.982;8.398;2022-09-01T02:02:02;2.60;;;2.07;;
8592;SDS011;4334;49.982;8.398;2022-09-01T02:04:33;3.17;;;2.00;;
8592;SDS011;4334;49.982;8.398;2022-09-01T02:07:00;5.03;;;2.20;;
8592;SDS011;4334;49.982;8.398;2022-09-01T02:09:27;3.87;;;2.10;;
8592;SDS011;4334;49.982;8.398;2022-09-01T02:11:54;2.20;;;2.00;;
8592;SDS011;4334;49.982;8.398;2022-09-01T02:14:23;4.33;;;2.27;;
8592;SDS011;4334;49.982;8.398;2022-09-01T02:16:51;5.00;;;2.30;;
8592;SDS011;4334;49.982;8.398;2022-09-01T02:19:20;2.23;;;2.03;;
8592;SDS011;4334;49.982;8.398;2022-09-01T02:21:47;2.20;;;2.00;;
8592;SDS011;4334;49.982;8.398;2022-09-01T02:24:20;2.17;;;2.00;;
8592;SDS011;4334;49.982;8.398;2022-09-01T02:26:48;3.60;;;2.10;;
8592;SDS011;4334;49.982;8.398;2022-09-01T02:29:16;2.23;;;2.03;;
8592;SDS011;4334;49.982;8.398;2022-09-01T02:31:46;2.90;;;2.30;;
8592;SDS011;4334;49.982;8.398;2022-09-01T02:34:17;5.87;;;2.30;;
8592;SDS011;4334;49.982;8.398;2022-09-01T02:36:46;3.67;;;2.33;;
8592;SDS011;4334;49.982;8.398;2022-09-01T02:39:14;3.27;;;1.93;;
8592;SDS011;4334;49.982;8.398;2022-09-01T02:41:41;2.63;;;2.23;;
8592;SDS011;4334;49.982;8.398;2022-09-01T02:44:08;3.03;;;2.20;;
8592;SDS011;4334;49.982;8.398;2022-09-01T02:46:36;5.57;;;2.30;;
8592;SDS011;4334;49.982;8.398;2022-09-01T02:49:06;2.93;;;2.30;;
8592;SDS011;4334;49.982;8.398;2022-09-01T02:51:40;2.40;;;2.20;;
8592;SDS011;4334;49.982;8.398;2022-09-01T02:54:07;5.27;;;2.40;;
8592;SDS011;4334;49.982;8.398;2022-09-01T02:56:35;2.40;;;2.20;;
8592;SDS011;4334;49.982;8.398;2022-09-01T02:59:02;3.13;;;2.30;;
8592;SDS011;4334;49.982;8.398;2022-09-01T03:01:30;4.03;;;2.27;;
8592;SDS011;4334;49.982;8.398;2022-09-01T03:03:58;3.90;;;2.30;;
8592;SDS011;4334;49.982;8.398;2022-09-01T03:06:27;2.30;;;2.10;;
8592;SDS011;4334;49.982;8.398;2022-09-01T03:08:59;2.80;;;2.50;;
8592;SDS011;4334;49.982;8.398;2022-09-01T03:11:28;4.37;;;2.20;;
8592;SDS011;4334;49.982;8.398;2022-09-01T03:13:56;3.73;;;2.50;;
8592;SDS011;4334;49.982;8.398;2022-09-01T03:16:23;4.60;;;2.40;;
8592;SDS011;4334;49.982;8.398;2022-09-01T03:18:50;2.50;;;2.30;;
8592;SDS011;4334;49.982;8.398;2022-09-01T03:21:17;8.03;;;2.50;;
8592;SDS011;4334;49.982;8.398;2022-09-01T03:23:45;3.90;;;2.40;;
8592;SDS011;4334;49.982;8.398;2022-09-01T03:26:14;2.93;;;2.20;;
8592;SDS011;4334;49.982;8.398;2022-09-01T03:28:43;3.17;;;2.57;;
8592;SDS011;4334;49.982;8.398;2022-09-01T03:31:10;2.50;;;2.30;;
8592;SDS011;4334;49.982;8.398;2022-09-01T03:33:37;4.70;;;2.60;;
8592;SDS011;4334;49.982;8.398;2022-09-01T03:36:05;6.90;;;2.53;;
8592;SDS011;4334;49.982;8.398;2022-09-01T03:38:32;3.37;;;2.60;;
8592;SDS011;4334;49.982;8.398;2022-09-01T03:41:00;3.60;;;2.30;;
8592;SDS011;4334;49.982;8.398;2022-09-01T03:43:31;3.77;;;2.50;;
8592;SDS011;4334;49.982;8.398;2022-09-01T03:45:59;4.57;;;2.50;;
8592;SDS011;4334;49.982;8.398;2022-09-01T03:48:26;2.90;;;2.30;;
8592;SDS011;4334;49.982;8.398;2022-09-01T03:50:54;2.97;;;2.43;;
8592;SDS011;4334;49.982;8.398;2022-09-01T03:53:26;4.37;;;2.40;;
8592;SDS011;4334;49.982;8.398;2022-09-01T03:55:55;2.97;;;2.50;;
8592;SDS011;4334;49.982;8.398;2022-09-01T03:58:23;3.10;;;2.70;;
8592;SDS011;4334;49.982;8.398;2022-09-01T04:00:52;3.53;;;2.40;;
8592;SDS011;4334;49.982;8.398;2022-09-01T04:03:22;4.33;;;2.23;;
8592;SDS011;4334;49.982;8.398;2022-09-01T04:05:51;4.97;;;2.40;;
8592;SDS011;4334;49.982;8.398;2022-09-01T04:08:19;4.93;;;2.47;;
8592;SDS011;4334;49.982;8.398;2022-09-01T04:10:55;3.80;;;2.57;;
8592;SDS011;4334;49.982;8.398;2022-09-01T04:13:25;3.27;;;2.47;;
8592;SDS011;4334;49.982;8.398;2022-09-01T04:15:55;3.97;;;2.43;;
8592;SDS011;4334;49.982;8.398;2022-09-01T04:18:23;3.10;;;2.63;;
8592;SDS011;4334;49.982;8.398;2022-09-01T04:20:50;2.97;;;2.63;;
8592;SDS011;4334;49.982;8.398;2022-09-01T04:23:19;2.77;;;2.50;;
8592;SDS011;4334;49.982;8.398;2022-09-01T04:25:51;3.07;;;2.50;;
8592;SDS011;4334;49.982;8.398;2022-09-01T04:28:19;2.90;;;2.60;;
8592;SDS011;4334;49.982;8.398;2022-09-01T04:30:51;4.40;;;2.40;;
8592;SDS011;4334;49.982;8.398;2022-09-01T04:33:21;3.50;;;2.80;;
8592;SDS011;4334;49.982;8.398;2022-09-01T04:35:49;4.80;;;2.60;;
8592;SDS011;4334;49.982;8.398;2022-09-01T04:38:19;3.13;;;2.57;;
8592;SDS011;4334;49.982;8.398;2022-09-01T04:40:46;3.27;;;2.60;;
8592;SDS011;4334;49.982;8.398;2022-09-01T04:43:14;3.63;;;2.40;;
8592;SDS011;4334;49.982;8.398;2022-09-01T04:45:41;3.27;;;2.47;;
8592;SDS011;4334;49.982;8.398;2022-09-01T04:48:08;3.73;;;2.80;;
8592;SDS011;4334;49.982;8.398;2022-09-01T04:50:38;3.20;;;2.70;;
8592;SDS011;4334;49.982;8.398;2022-09-01T04:53:05;3.23;;;2.87;;
8592;SDS011;4334;49.982;8.398;2022-09-01T04:55:36;4.93;;;2.67;;
8592;SDS011;4334;49.982;8.398;2022-09-01T04:58:07;5.57;;;2.77;;
8592;SDS011;4334;49.982;8.398;2022-09-01T05:00:38;3.87;;;2.50;;
8592;SDS011;4334;49.982;8.398;2022-09-01T05:03:05;3.97;;;2.70;;
8592;SDS011;4334;49.982;8.398;2022-09-01T05:05:36;6.20;;;3.27;;
8592;SDS011;4334;49.982;8.398;2022-09-01T05:08:07;3.80;;;2.40;;
8592;SDS011;4334;49.982;8.398;2022-09-01T05:10:38;5.50;;;2.60;;
8592;SDS011;4334;49.982;8.398;2022-09-01T05:13:06;4.47;;;3.37;;
8592;SDS011;4334;49.982;8.398;2022-09-01T05:15:37;5.63;;;3.53;;
8592;SDS011;4334;49.982;8.398;2022-09-01T05:18:10;4.77;;;2.50;;
8592;SDS011;4334;49.982;8.398;2022-09-01T05:20:39;2.50;;;2.20;;
8592;SDS011;4334;49.982;8.398;2022-09-01T05:23:07;3.77;;;2.60;;
8592;SDS011;4334;49.982;8.398;2022-09-01T05:25:38;4.73;;;2.40;;
8592;SDS011;4334;49.982;8.398;2022-09-01T05:28:06;4.33;;;2.50;;
8592;SDS011;4334;49.982;8.398;2022-09-01T05:30:34;3.67;;;2.63;;
8592;SDS011;4334;49.982;8.398;2022-09-01T05:33:02;2.77;;;2.17;;
8592;SDS011;4334;49.982;8.398;2022-09-01T05:35:34;2.80;;;2.50;;
8592;SDS011;4334;49.982;8.398;2022-09-01T05:38:03;4.13;;;2.40;;
8592;SDS011;4334;49.982;8.398;2022-09-01T05:40:32;5.23;;;2.60;;
8592;SDS011;4334;49.982;8.398;2022-09-01T05:43:05;3.33;;;2.10;;
8592;SDS011;4334;49.982;8.398;2022-09-01T05:45:34;3.77;;;2.40;;
8592;SDS011;4334;49.982;8.398;2022-09-01T05:48:00;5.90;;;2.43;;
8592;SDS011;4334;49.982;8.398;2022-09-01T05:50:29;4.13;;;2.83;;
8592;SDS011;4334;49.982;8.398;2022-09-01T05:52:56;4.53;;;2.50;;
8592;SDS011;4334;49.982;8.398;2022-09-01T05:55:24;2.87;;;2.60;;
8592;SDS011;4334;49.982;8.398;2022-09-01T05:57:51;3.13;;;2.23;;
8592;SDS011;4334;49.982;8.398;2022-09-01T06:00:19;6.20;;;2.40;;
8592;SDS011;4334;49.982;8.398;2022-09-01T06:02:46;3.70;;;2.30;;
8592;SDS011;4334;49.982;8.398;2022-09-01T06:05:13;3.17;;;2.30;;
8592;SDS011;4334;49.982;8.398;2022-09-01T06:07:40;3.87;;;2.30;;
8592;SDS011;4334;49.982;8.398;2022-09-01T06:10:08;2.93;;;2.30;;
8592;SDS011;4334;49.982;8.398;2022-09-01T06:12:38;5.67;;;2.40;;
8592;SDS011;4334;49.982;8.398;2022-09-01T06:15:05;3.10;;;2.03;;
8592;SDS011;4334;49.982;8.398;2022-09-01T06:17:39;2.93;;;2.40;;
8592;SDS011;4334;49.982;8.398;2022-09-01T06:20:08;3.10;;;2.10;;
8592;SDS011;4334;49.982;8.398;2022-09-01T06:22:35;5.13;;;2.40;;
8592;SDS011;4334;49.982;8.398;2022-09-01T06:25:02;5.23;;;2.83;;
8592;SDS011;4334;49.982;8.398;2022-09-01T06:27:31;2.67;;;2.17;;
8592;SDS011;4334;49.982;8.398;2022-09-01T06:29:59;7.30;;;2.20;;
8592;SDS011;4334;49.982;8.398;2022-09-01T06:32:26;2.73;;;2.10;;
8592;SDS011;4334;49.982;8.398;2022-09-01T06:34:53;2.67;;;2.10;;
8592;SDS011;4334;49.982;8.398;2022-09-01T06:37:22;2.80;;;2.20;;
8592;SDS011;4334;49.982;8.398;2022-09-01T06:39:49;2.43;;;2.23;;
8592;SDS011;4334;49.982;8.398;2022-09-01T06:42:16;3.00;;;2.00;;
8592;SDS011;4334;49.982;8.398;2022-09-01T06:44:43;2.30;;;2.00;;
8592;SDS011;4334;49.982;8.398;2022-09-01T06:47:11;2.27;;;2.07;;
8592;SDS011;4334;49.982;8.398;2022-09-01T06:49:39;5.00;;;2.17;;
8592;SDS011;4334;49.982;8.398;2022-09-01T06:52:06;4.90;;;2.10;;
8592;SDS011;4334;49.982;8.398;2022-09-01T06:54:33;3.13;;;1.77;;
8592;SDS011;4334;49.982;8.398;2022-09-01T06:57:00;2.70;;;1.93;;
8592;SDS011;4334;49.982;8.398;2022-09-01T06:59:28;4.23;;;2.20;;
8592;SDS011;4334;49.982;8.398;2022-09-01T07:01:56;3.17;;;2.07;;
8592;SDS011;4334;49.982;8.398;2022-09-01T07:04:26;2.63;;;2.00;;
8592;SDS011;4334;49.982;8.398;2022-09-01T07:06:55;2.23;;;1.73;;
8592;SDS011;4334;49.982;8.398;2022-09-01T07:09:22;2.53;;;2.07;;
8592;SDS011;4334;49.982;8.398;2022-09-01T07:11:50;2.83;;;2.13;;
8592;SDS011;4334;49.982;8.398;2022-09-01T07:14:17;3.70;;;1.93;;
8592;SDS011;4334;49.982;8.398;2022-09-01T07:16:45;3.70;;;2.20;;
8592;SDS011;4334;49.982;8.398;2022-09-01T07:19:11;5.90;;;1.90;;
8592;SDS011;4334;49.982;8.398;2022-09-01T07:21:40;2.93;;;2.10;;
8592;SDS011;4334;49.982;8.398;2022-09-01T07:24:08;3.87;;;1.80;;
8592;SDS011;4334;49.982;8.398;2022-09-01T07:26:36;2.97;;;2.00;;
8592;SDS011;4334;49.982;8.398;2022-09-01T07:29:05;2.70;;;2.20;;
8592;SDS011;4334;49.982;8.398;2022-09-01T07:31:34;2.27;;;2.07;;
8592;SDS011;4334;49.982;8.398;2022-09-01T07:34:03;2.63;;;1.90;;
8592;SDS011;4334;49.982;8.398;2022-09-01T07:36:37;3.77;;;2.00;;
8592;SDS011;4334;49.982;8.398;2022-09-01T07:39:06;5.13;;;2.10;;
8592;SDS011;4334;49.982;8.398;2022-09-01T07:41:32;2.20;;;2.00;;
8592;SDS011;4334;49.982;8.398;2022-09-01T07:44:00;2.33;;;1.90;;
8592;SDS011;4334;49.982;8.398;2022-09-01T07:46:29;2.60;;;1.90;;
8592;SDS011;4334;49.982;8.398;2022-09-01T07:48:57;6.57;;;1.77;;
8592;SDS011;4334;49.982;8.398;2022-09-01T07:51:25;2.67;;;2.20;;
8592;SDS011;4334;49.982;8.398;2022-09-01T07:53:53;4.70;;;2.10;;
8592;SDS011;4334;49.982;8.398;2022-09-01T07:56:22;4.37;;;2.20;;
8592;SDS011;4334;49.982;8.398;2022-09-01T07:58:49;2.87;;;2.17;;
8592;SDS011;4334;49.982;8.398;2022-09-01T08:01:17;4.03;;;1.90;;
8592;SDS011;4334;49.982;8.398;2022-09-01T08:03:46;4.17;;;2.20;;
8592;SDS011;4334;49.982;8.398;2022-09-01T08:06:15;2.60;;;1.90;;
8592;SDS011;4334;49.982;8.398;2022-09-01T08:08:44;2.45;;;2.03;;
8592;SDS011;4334;49.982;8.398;2022-09-01T08:11:14;3.47;;;1.83;;
8592;SDS011;4334;49.982;8.398;2022-09-01T08:13:46;2.85;;;2.00;;
8592;SDS011;4334;49.982;8.398;2022-09-01T08:16:13;7.72;;;2.22;;
8592;SDS011;4334;49.982;8.398;2022-09-01T08:18:40;2.88;;;2.03;;
8592;SDS011;4334;49.982;8.398;2022-09-01T08:21:09;2.75;;;2.03;;
8592;SDS011;4334;49.982;8.398;2022-09-01T08:23:37;3.30;;;2.08;;
8592;SDS011;4334;49.982;8.398;2022-09-01T08:26:04;2.15;;;1.90;;
8592;SDS011;4334;49.982;8.398;2022-09-01T08:28:32;3.92;;;1.90;;
8592;SDS011;4334;49.982;8.398;2022-09-01T08:31:04;3.75;;;2.13;;
8592;SDS011;4334;49.982;8.398;2022-09-01T08:33:31;4.45;;;1.90;;
8592;SDS011;4334;49.982;8.398;2022-09-01T08:35:59;3.80;;;2.00;;
8592;SDS011;4334;49.982;8.398;2022-09-01T08:38:26;2.50;;;1.92;;
8592;SDS011;4334;49.982;8.398;2022-09-01T08:40:53;4.50;;;1.80;;
8592;SDS011;4334;49.982;8.398;2022-09-01T08:43:23;3.20;;;2.20;;
8592;SDS011;4334;49.982;8.398;2022-09-01T08:46:02;3.45;;;2.00;;
8592;SDS011;4334;49.982;8.398;2022-09-01T08:48:36;2.25;;;1.90;;
8592;SDS011;4334;49.982;8.398;2022-09-01T08:51:07;7.05;;;2.15;;
8592;SDS011;4334;49.982;8.398;2022-09-01T08:53:42;5.68;;;2.03;;
8592;SDS011;4334;49.982;8.398;2022-09-01T08:56:12;5.25;;;2.00;;
8592;SDS011;4334;49.982;8.398;2022-09-01T08:58:42;4.28;;;2.35;;
8592;SDS011;4334;49.982;8.398;2022-09-01T09:01:14;3.75;;;2.10;;
8592;SDS011;4334;49.982;8.398;2022-09-01T09:03:50;3.10;;;2.00;;
8592;SDS011;4334;49.982;8.398;2022-09-01T09:06:32;3.13;;;1.90;;
8592;SDS011;4334;49.982;8.398;2022-09-01T09:09:03;2.15;;;1.80;;
8592;SDS011;4334;49.982;8.398;2022-09-01T09:11:43;2.28;;;1.90;;
8592;SDS011;4334;49.982;8.398;2022-09-01T09:14:21;2.45;;;1.92;;
8592;SDS011;4334;49.982;8.398;2022-09-01T09:17:08;5.32;;;2.40;;
8592;SDS011;4334;49.982;8.398;2022-09-01T09:19:36;3.65;;;1.80;;
8592;SDS011;4334;49.982;8.398;2022-09-01T09:22:06;2.30;;;1.98;;
8592;SDS011;4334;49.982;8.398;2022-09-01T09:24:36;4.57;;;2.00;;
8592;SDS011;4334;49.982;8.398;2022-09-01T09:27:18;3.75;;;2.15;;
8592;SDS011;4334;49.982;8.398;2022-09-01T09:29:47;2.17;;;1.85;;
8592;SDS011;4334;49.982;8.398;2022-09-01T09:32:17;3.53;;;1.90;;
8592;SDS011;4334;49.982;8.398;2022-09-01T09:34:45;2.30;;;2.10;;
8592;SDS011;4334;49.982;8.398;2022-09-01T09:37:19;3.95;;;2.13;;
8592;SDS011;4334;49.982;8.398;2022-09-01T09:40:04;3.40;;;1.90;;
8592;SDS011;4334;49.982;8.398;2022-09-01T09:42:35;3.78;;;2.30;;
8592;SDS011;4334;49.982;8.398;2022-09-01T09:45:04;2.55;;;1.95;;
8592;SDS011;4334;49.982;8.398;2022-09-01T09:47:44;2.53;;;2.05;;
8592;SDS011;4334;49.982;8.398;2022-09-01T09:50:21;4.10;;;2.15;;
8592;SDS011;4334;49.982;8.398;2022-09-01T09:52:51;5.25;;;2.08;;
8592;SDS011;4334;49.982;8.398;2022-09-01T09:55:34;5.57;;;2.22;;
8592;SDS011;4334;49.982;8.398;2022-09-01T09:58:09;7.97;;;2.40;;
8592;SDS011;4334;49.982;8.398;2022-09-01T10:00:37;3.83;;;1.83;;
8592;SDS011;4334;49.982;8.398;2022-09-01T10:03:07;2.60;;;1.83;;
8592;SDS011;4334;49.982;8.398;2022-09-01T10:05:36;3.78;;;2.10;;
8592;SDS011;4334;49.982;8.398;2022-09-01T10:08:06;2.60;;;1.90;;
8592;SDS011;4334;49.982;8.398;2022-09-01T10:10:37;5.22;;;2.03;;
8592;SDS011;4334;49.982;8.398;2022-09-01T10:13:10;3.03;;;2.10;;
8592;SDS011;4334;49.982;8.398;2022-09-01T10:15:39;5.25;;;2.08;;
8592;SDS011;4334;49.982;8.398;2022-09-01T10:18:09;5.45;;;2.00;;
8592;SDS011;4334;49.982;8.398;2022-09-01T10:20:41;4.30;;;1.90;;
8592;SDS011;4334;49.982;8.398;2022-09-01T10:23:13;3.10;;;1.88;;
8592;SDS011;4334;49.982;8.398;2022-09-01T10:25:40;2.30;;;2.10;;
8592;SDS011;4334;49.982;8.398;2022-09-01T10:28:10;6.28;;;2.28;;
8592;SDS011;4334;49.982;8.398;2022-09-01T10:30:40;2.28;;;2.00;;
8592;SDS011;4334;49.982;8.398;2022-09-01T10:33:12;3.13;;;2.30;;
8592;SDS011;4334;49.982;8.398;2022-09-01T10:35:41;2.20;;;1.92;;
8592;SDS011;4334;49.982;8.398;2022-09-01T10:38:13;2.33;;;1.80;;
8592;SDS011;4334;49.982;8.398;2022-09-01T10:40:42;2.30;;;2.03;;
8592;SDS011;4334;49.982;8.398;2022-09-01T10:49:17;3.22;;;2.10;;
8592;SDS011;4334;49.982;8.398;2022-09-01T10:51:47;4.85;;;1.80;;
8592;SDS011;4334;49.982;8.398;2022-09-01T10:57:23;2.75;;;1.88;;
8592;SDS011;4334;49.982;8.398;2022-09-01T11:00:00;5.63;;;2.00;;
8592;SDS011;4334;49.982;8.398;2022-09-01T11:06:05;2.55;;;2.20;;
8592;SDS011;4334;49.982;8.398;2022-09-01T11:08:40;2.25;;;2.00;;
8592;SDS011;4334;49.982;8.398;2022-09-01T11:11:12;4.07;;;2.20;;
8592;SDS011;4334;49.982;8.398;2022-09-01T11:13:48;4.35;;;1.95;;
8592;SDS011;4334;49.982;8.398;2022-09-01T11:16:34;3.53;;;2.10;;
8592;SDS011;4334;49.982;8.398;2022-09-01T11:19:15;2.67;;;2.17;;
8592;SDS011;4334;49.982;8.398;2022-09-01T11:22:10;4.65;;;2.25;;
8592;SDS011;4334;49.982;8.398;2022-09-01T11:25:04;2.17;;;1.95;;
8592;SDS011;4334;49.982;8.398;2022-09-01T11:27:55;2.97;;;2.00;;
8592;SDS011;4334;49.982;8.398;2022-09-01T11:30:24;2.42;;;2.00;;
8592;SDS011;4334;49.982;8.398;2022-09-01T11:33:02;2.60;;;2.00;;
8592;SDS011;4334;49.982;8.398;2022-09-01T11:35:37;2.75;;;1.95;;
8592;SDS011;4334;49.982;8.398;2022-09-01T11:38:06;3.63;;;1.80;;
8592;SDS011;4334;49.982;8.398;2022-09-01T11:40:36;3.25;;;2.00;;
8592;SDS011;4334;49.982;8.398;2022-09-01T11:43:03;2.20;;;2.00;;
8592;SDS011;4334;49.982;8.398;2022-09-01T11:45:34;3.63;;;2.20;;
8592;SDS011;4334;49.982;8.398;2022-09-01T11:48:08;5.05;;;2.33;;
8592;SDS011;4334;49.982;8.398;2022-09-01T11:50:38;2.40;;;2.03;;
8592;SDS011;4334;49.982;8.398;2022-09-01T11:53:09;4.00;;;2.20;;
8592;SDS011;4334;49.982;8.398;2022-09-01T11:55:39;2.03;;;1.83;;
8592;SDS011;4334;49.982;8.398;2022-09-01T11:58:09;2.42;;;2.03;;
8592;SDS011;4334;49.982;8.398;2022-09-01T12:00:38;5.72;;;2.00;;
8592;SDS011;4334;49.982;8.398;2022-09-01T12:03:17;3.15;;;1.80;;
8592;SDS011;4334;49.982;8.398;2022-09-01T12:05:46;2.10;;;1.90;;
8592;SDS011;4334;49.982;8.398;2022-09-01T12:08:20;2.35;;;1.98;;
8592;SDS011;4334;49.982;8.398;2022-09-01T12:10:47;2.78;;;2.38;;
8592;SDS011;4334;49.982;8.398;2022-09-01T12:13:16;4.63;;;2.10;;
8592;SDS011;4334;49.982;8.398;2022-09-01T12:15:51;5.25;;;3.60;;
8592;SDS011;4334;49.982;8.398;2022-09-01T12:18:19;2.65;;;2.20;;
8592;SDS011;4334;49.982;8.398;2022-09-01T12:20:49;2.22;;;2.03;;
8592;SDS011;4334;49.982;8.398;2022-09-01T12:23:18;4.07;;;1.98;;
8592;SDS011;4334;49.982;8.398;2022-09-01T12:25:51;2.10;;;1.90;;
8592;SDS011;4334;49.982;8.398;2022-09-01T12:28:20;2.30;;;2.10;;
8592;SDS011;4334;49.982;8.398;2022-09-01T12:30:48;2.05;;;1.83;;
8592;SDS011;4334;49.982;8.398;2022-09-01T12:33:17;2.58;;;2.15;;
8592;SDS011;4334;49.982;8.398;2022-09-01T12:35:45;2.45;;;1.83;;
8592;SDS011;4334;49.982;8.398;2022-09-01T12:38:15;3.35;;;2.05;;
8592;SDS011;4334;49.982;8.398;2022-09-01T12:40:49;2.85;;;1.80;;
8592;SDS011;4334;49.982;8.398;2022-09-01T12:43:29;3.28;;;1.70;;
8592;SDS011;4334;49.982;8.398;2022-09-01T12:45:58;2.88;;;1.65;;
8592;SDS011;4334;49.982;8.398;2022-09-01T12:48:26;2.20;;;1.80;;
8592;SDS011;4334;49.982;8.398;2022-09-01T12:50:55;3.10;;;1.80;;
8592;SDS011;4334;49.982;8.398;2022-09-01T12:53:25;2.15;;;1.92;;
8592;SDS011;4334;49.982;8.398;2022-09-01T12:55:58;3.00;;;2.00;;
8592;SDS011;4334;49.982;8.398;2022-09-01T12:58:27;4.30;;;1.88;;
8592;SDS011;4334;49.982;8.398;2022-09-01T13:00:57;2.25;;;1.98;;
8592;SDS011;4334;49.982;8.398;2022-09-01T13:03:26;3.75;;;2.08;;
8592;SDS011;4334;49.982;8.398;2022-09-01T13:05:54;4.60;;;2.03;;
8592;SDS011;4334;49.982;8.398;2022-09-01T13:08:23;3.78;;;1.95;;
8592;SDS011;4334;49.982;8.398;2022-09-01T13:10:53;2.00;;;1.80;;
8592;SDS011;4334;49.982;8.398;2022-09-01T13:13:23;2.28;;;1.83;;
8592;SDS011;4334;49.982;8.398;2022-09-01T13:15:51;2.30;;;1.90;;
8592;SDS011;4334;49.982;8.398;2022-09-01T13:18:20;4.80;;;2.08;;
8592;SDS011;4334;49.982;8.398;2022-09-01T13:20:47;3.20;;;1.85;;
8592;SDS011;4334;49.982;8.398;2022-09-01T13:23:15;3.35;;;1.80;;
8592;SDS011;4334;49.982;8.398;2022-09-01T13:25:42;4.35;;;2.13;;
8592;SDS011;4334;49.982;8.398;2022-09-01T13:28:10;2.38;;;1.70;;
8592;SDS011;4334;49.982;8.398;2022-09-01T13:30:38;2.65;;;1.80;;
8592;SDS011;4334;49.982;8.398;2022-09-01T13:33:06;3.25;;;1.83;;
8592;SDS011;4334;49.982;8.398;2022-09-01T13:35:32;4.00;;;2.20;;
8592;SDS011;4334;49.982;8.398;2022-09-01T13:37:59;2.40;;;2.03;;
8592;SDS011;4334;49.982;8.398;2022-09-01T13:40:26;5.10;;;1.90;;
8592;SDS011;4334;49.982;8.398;2022-09-01T13:42:53;3.97;;;1.80;;
8592;SDS011;4334;49.982;8.398;2022-09-01T13:45:20;3.10;;;1.90;;
8592;SDS011;4334;49.982;8.398;2022-09-01T13:47:50;4.35;;;1.90;;
8592;SDS011;4334;49.982;8.398;2022-09-01T13:50:18;2.20;;;2.00;;
8592;SDS011;4334;49.982;8.398;2022-09-01T13:52:48;1.80;;;1.70;;
8592;SDS011;4334;49.982;8.398;2022-09-01T13:55:16;2.25;;;2.05;;
8592;SDS011;4334;49.982;8.398;2022-09-01T13:57:44;2.05;;;1.80;;
8592;SDS011;4334;49.982;8.398;2022-09-01T14:00:11;2.13;;;1.92;;
8592;SDS011;4334;49.982;8.398;2022-09-01T14:02:43;3.17;;;1.90;;
8592;SDS011;4334;49.982;8.398;2022-09-01T14:05:15;2.00;;;1.80;;
8592;SDS011;4334;49.982;8.398;2022-09-01T14:07:43;1.92;;;1.77;;
8592;SDS011;4334;49.982;8.398;2022-09-01T14:10:10;2.38;;;1.95;;
8592;SDS011;4334;49.982;8.398;2022-09-01T14:12:38;2.47;;;2.15;;
8592;SDS011;4334;49.982;8.398;2022-09-01T14:15:05;2.47;;;1.90;;
8592;SDS011;4334;49.982;8.398;2022-09-01T14:17:35;6.55;;;2.08;;
8592;SDS011;4334;49.982;8.398;2022-09-01T14:20:04;2.05;;;1.83;;
8592;SDS011;4334;49.982;8.398;2022-09-01T14:22:34;2.15;;;1.90;;
8592;SDS011;4334;49.982;8.398;2022-09-01T14:25:01;2.05;;;1.83;;
8592;SDS011;4334;49.982;8.398;2022-09-01T14:27:28;2.20;;;1.85;;
8592;SDS011;4334;49.982;8.398;2022-09-01T14:29:55;4.55;;;1.90;;
8592;SDS011;4334;49.982;8.398;2022-09-01T14:32:22;2.17;;;1.98;;
8592;SDS011;4334;49.982;8.398;2022-09-01T14:34:51;3.08;;;1.95;;
8592;SDS011;4334;49.982;8.398;2022-09-01T14:37:17;3.65;;;1.80;;
8592;SDS011;4334;49.982;8.398;2022-09-01T14:39:49;10.57;;;2.20;;
8592;SDS011;4334;49.982;8.398;2022-09-01T14:42:15;3.10;;;2.00;;
8592;SDS011;4334;49.982;8.398;2022-09-01T14:44:43;2.20;;;1.98;;
8592;SDS011;4334;49.982;8.398;2022-09-01T14:47:10;2.97;;;1.90;;
8592;SDS011;4334;49.982;8.398;2022-09-01T14:49:38;2.80;;;2.03;;
8592;SDS011;4334;49.982;8.398;2022-09-01T14:52:06;3.95;;;1.90;;
8592;SDS011;4334;49.982;8.398;2022-09-01T14:54:33;3.45;;;1.90;;
8592;SDS011;4334;49.982;8.398;2022-09-01T14:57:03;2.75;;;2.03;;
8592;SDS011;4334;49.982;8.398;2022-09-01T14:59:30;4.47;;;1.98;;
8592;SDS011;4334;49.982;8.398;2022-09-01T15:01:57;3.15;;;2.03;;
8592;SDS011;4334;49.982;8.398;2022-09-01T15:04:24;2.58;;;1.80;;
8592;SDS011;4334;49.982;8.398;2022-09-01T15:06:51;2.05;;;1.90;;
8592;SDS011;4334;49.982;8.398;2022-09-01T15:09:18;2.58;;;2.00;;
8592;SDS011;4334;49.982;8.398;2022-09-01T15:11:45;2.70;;;1.95;;
8592;SDS011;4334;49.982;8.398;2022-09-01T15:14:13;3.58;;;2.10;;
8592;SDS011;4334;49.982;8.398;2022-09-01T15:16:40;2.42;;;2.00;;
8592;SDS011;4334;49.982;8.398;2022-09-01T15:19:08;2.33;;;1.80;;
8592;SDS011;4334;49.982;8.398;2022-09-01T15:21:38;3.70;;;1.85;;
8592;SDS011;4334;49.982;8.398;2022-09-01T15:24:06;2.10;;;1.90;;
8592;SDS011;4334;49.982;8.398;2022-09-01T15:26:34;2.08;;;1.92;;
8592;SDS011;4334;49.982;8.398;2022-09-01T15:29:02;4.22;;;2.05;;
8592;SDS011;4334;49.982;8.398;2022-09-01T15:31:30;2.25;;;1.80;;
8592;SDS011;4334;49.982;8.398;2022-09-01T15:33:58;2.13;;;1.90;;
8592;SDS011;4334;49.982;8.398;2022-09-01T15:36:26;2.15;;;1.95;;
8592;SDS011;4334;49.982;8.398;2022-09-01T15:38:55;3.58;;;1.80;;
8592;SDS011;4334;49.982;8.398;2022-09-01T15:41:23;1.88;;;1.70;;